sensor_id;sensor_type;location;lat;lon;timestamp;pressure;altitude;pressure_sealevel;temperature;humidity
72685;BME280;61365;52.162;4.500;2022-10-31T00:01:30;101995.44;;;12.25;88.91
72685;BME280;61365;52.162;4.500;2022-10-31T00:03:59;102002.41;;;12.17;88.72
72685;BME280;61365;52.162;4.500;2022-10-31T00:06:26;102001.53;;;12.18;89.49
72685;BME280;61365;52.162;4.500;2022-10-31T00:08:55;101997.97;;;12.14;88.63
72685;BME280;61365;52.162;4.500;2022-10-31T00:11:23;101996.25;;;12.15;89.17
72685;BME280;61365;52.162;4.500;2022-10-31T00:13:51;101995.38;;;12.16;88.43
72685;BME280;61365;52.162;4.500;2022-10-31T00:16:20;102003.31;;;12.21;89.49
72685;BME280;61365;52.162;4.500;2022-10-31T00:18:52;101995.34;;;12.13;88.34
72685;BME280;61365;52.162;4.500;2022-10-31T00:21:20;102010.22;;;12.11;89.12
72685;BME280;61365;52.162;4.500;2022-10-31T00:23:47;102012.00;;;12.13;88.94
72685;BME280;61365;52.162;4.500;2022-10-31T00:26:14;102013.72;;;12.11;88.83
72685;BME280;61365;52.162;4.500;2022-10-31T00:28:41;102007.63;;;12.14;88.92
72685;BME280;61365;52.162;4.500;2022-10-31T00:31:09;102009.34;;;12.12;88.56
72685;BME280;61365;52.162;4.500;2022-10-31T00:33:38;102012.84;;;12.09;88.79
72685;BME280;61365;52.162;4.500;2022-10-31T00:36:07;102018.97;;;12.08;88.59
72685;BME280;61365;52.162;4.500;2022-10-31T00:38:37;102011.94;;;12.09;88.32
72685;BME280;61365;52.162;4.500;2022-10-31T00:41:04;102011.97;;;12.10;88.65
72685;BME280;61365;52.162;4.500;2022-10-31T00:43:30;102012.81;;;12.06;88.77
72685;BME280;61365;52.162;4.500;2022-10-31T00:45:56;102008.44;;;12.08;89.18
72685;BME280;61365;52.162;4.500;2022-10-31T00:48:22;102005.78;;;12.07;89.21
72685;BME280;61365;52.162;4.500;2022-10-31T00:50:49;102009.28;;;12.06;89.24
72685;BME280;61365;52.162;4.500;2022-10-31T00:53:15;102014.63;;;12.10;88.90
72685;BME280;61365;52.162;4.500;2022-10-31T00:55:41;102011.06;;;12.08;88.97
72685;BME280;61365;52.162;4.500;2022-10-31T00:58:08;102013.66;;;12.05;88.84
72685;BME280;61365;52.162;4.500;2022-10-31T01:00:34;102011.88;;;12.02;89.42
72685;BME280;61365;52.162;4.500;2022-10-31T01:03:01;102014.47;;;11.99;89.32
72685;BME280;61365;52.162;4.500;2022-10-31T01:05:27;102014.50;;;12.01;89.48
72685;BME280;61365;52.162;4.500;2022-10-31T01:07:53;102015.28;;;11.95;89.04
72685;BME280;61365;52.162;4.500;2022-10-31T01:10:20;102002.91;;;11.90;89.53
72685;BME280;61365;52.162;4.500;2022-10-31T01:12:48;101999.47;;;11.92;89.72
72685;BME280;61365;52.162;4.500;2022-10-31T01:15:18;102002.06;;;11.91;89.97
72685;BME280;61365;52.162;4.500;2022-10-31T01:17:47;101995.06;;;11.93;90.27
72685;BME280;61365;52.162;4.500;2022-10-31T01:20:16;102008.16;;;11.88;89.81
72685;BME280;61365;52.162;4.500;2022-10-31T01:22:43;102001.09;;;11.85;90.40
72685;BME280;61365;52.162;4.500;2022-10-31T01:25:10;102000.19;;;11.82;90.59
72685;BME280;61365;52.162;4.500;2022-10-31T01:27:36;102006.34;;;11.84;90.14
72685;BME280;61365;52.162;4.500;2022-10-31T01:30:04;102007.19;;;11.80;90.42
72685;BME280;61365;52.162;4.500;2022-10-31T01:32:31;101997.59;;;11.83;90.84
72685;BME280;61365;52.162;4.500;2022-10-31T01:34:58;101997.59;;;11.85;90.80
72685;BME280;61365;52.162;4.500;2022-10-31T01:37:24;101996.69;;;11.81;90.67
72685;BME280;61365;52.162;4.500;2022-10-31T01:39:50;101993.13;;;11.76;90.65
72685;BME280;61365;52.162;4.500;2022-10-31T01:42:19;101988.72;;;11.77;90.77
72685;BME280;61365;52.162;4.500;2022-10-31T01:44:59;101989.63;;;11.79;90.92
72685;BME280;61365;52.162;4.500;2022-10-31T01:47:34;101983.47;;;11.75;91.11
72685;BME280;61365;52.162;4.500;2022-10-31T01:50:14;101989.59;;;11.74;90.78
72685;BME280;61365;52.162;4.500;2022-10-31T01:52:50;101976.44;;;11.74;91.22
72685;BME280;61365;52.162;4.500;2022-10-31T01:55:23;101980.78;;;11.74;91.24
72685;BME280;61365;52.162;4.500;2022-10-31T01:58:03;101986.09;;;11.77;91.20
72685;BME280;61365;52.162;4.500;2022-10-31T02:00:33;101980.84;;;11.75;91.09
72685;BME280;61365;52.162;4.500;2022-10-31T02:02:59;101981.75;;;11.77;90.93
72685;BME280;61365;52.162;4.500;2022-10-31T02:05:28;101983.47;;;11.75;91.20
72685;BME280;61365;52.162;4.500;2022-10-31T02:08:11;101979.94;;;11.73;91.19
72685;BME280;61365;52.162;4.500;2022-10-31T02:10:42;101977.25;;;11.70;91.48
72685;BME280;61365;52.162;4.500;2022-10-31T02:13:10;101977.28;;;11.71;91.54
72685;BME280;61365;52.162;4.500;2022-10-31T02:15:40;101982.56;;;11.71;91.17
72685;BME280;61365;52.162;4.500;2022-10-31T02:18:09;101980.75;;;11.69;91.48
72685;BME280;61365;52.162;4.500;2022-10-31T02:30:06;101979.88;;;11.68;92.00
72685;BME280;61365;52.162;4.500;2022-10-31T02:32:48;101978.84;;;11.57;92.10
72685;BME280;61365;52.162;4.500;2022-10-31T02:40:39;101969.00;;;11.42;92.65
72685;BME280;61365;52.162;4.500;2022-10-31T02:43:25;101974.22;;;11.39;93.18
72685;BME280;61365;52.162;4.500;2022-10-31T02:46:03;101968.09;;;11.38;93.29
72685;BME280;61365;52.162;4.500;2022-10-31T02:48:39;101968.91;;;11.36;93.38
72685;BME280;61365;52.162;4.500;2022-10-31T02:51:10;101976.78;;;11.33;93.20
72685;BME280;61365;52.162;4.500;2022-10-31T02:53:38;101973.28;;;11.34;93.49
72685;BME280;61365;52.162;4.500;2022-10-31T02:56:16;101963.66;;;11.34;93.49
72685;BME280;61365;52.162;4.500;2022-10-31T02:58:50;101974.00;;;11.23;93.42
72685;BME280;61365;52.162;4.500;2022-10-31T03:01:54;101971.34;;;11.20;93.50
72685;BME280;61365;52.162;4.500;2022-10-31T03:05:14;101966.88;;;11.15;93.71
72685;BME280;61365;52.162;4.500;2022-10-31T03:08:01;101982.66;;;11.15;93.81
72685;BME280;61365;52.162;4.500;2022-10-31T03:13:51;101973.66;;;10.99;94.13
72685;BME280;61365;52.162;4.500;2022-10-31T03:19:22;101969.25;;;10.98;94.30
72685;BME280;61365;52.162;4.500;2022-10-31T03:21:56;101972.69;;;10.93;94.36
72685;BME280;61365;52.162;4.500;2022-10-31T03:24:37;101979.69;;;10.93;94.68
72685;BME280;61365;52.162;4.500;2022-10-31T03:27:07;101977.81;;;10.84;94.59
72685;BME280;61365;52.162;4.500;2022-10-31T03:29:37;101982.16;;;10.85;94.89
72685;BME280;61365;52.162;4.500;2022-10-31T03:32:09;101980.56;;;10.92;95.26
72685;BME280;61365;52.162;4.500;2022-10-31T03:34:42;101983.06;;;10.84;94.69
72685;BME280;61365;52.162;4.500;2022-10-31T03:37:13;101983.88;;;10.81;95.24
72685;BME280;61365;52.162;4.500;2022-10-31T03:39:45;101985.59;;;10.79;95.33
72685;BME280;61365;52.162;4.500;2022-10-31T03:42:21;101979.34;;;10.73;95.53
72685;BME280;61365;52.162;4.500;2022-10-31T03:47:29;101975.06;;;10.78;96.00
72685;BME280;61365;52.162;4.500;2022-10-31T03:49:57;101976.91;;;10.84;96.27
72685;BME280;61365;52.162;4.500;2022-10-31T03:55:57;101972.41;;;10.75;95.46
72685;BME280;61365;52.162;4.500;2022-10-31T03:58:38;101968.78;;;10.68;96.12
72685;BME280;61365;52.162;4.500;2022-10-31T04:01:13;101973.19;;;10.69;96.20
72685;BME280;61365;52.162;4.500;2022-10-31T04:03:44;101976.72;;;10.73;96.50
72685;BME280;61365;52.162;4.500;2022-10-31T04:06:13;101976.78;;;10.76;96.72
72685;BME280;61365;52.162;4.500;2022-10-31T04:08:48;101983.75;;;10.75;96.42
72685;BME280;61365;52.162;4.500;2022-10-31T04:11:21;101982.91;;;10.75;96.27
72685;BME280;61365;52.162;4.500;2022-10-31T04:13:54;101988.19;;;10.78;96.22
72685;BME280;61365;52.162;4.500;2022-10-31T04:16:23;101991.63;;;10.75;96.00
72685;BME280;61365;52.162;4.500;2022-10-31T04:18:51;101988.09;;;10.72;96.01
72685;BME280;61365;52.162;4.500;2022-10-31T04:21:18;101999.47;;;10.72;96.30
72685;BME280;61365;52.162;4.500;2022-10-31T04:23:44;101989.81;;;10.70;96.35
72685;BME280;61365;52.162;4.500;2022-10-31T04:26:12;101997.66;;;10.68;96.05
72685;BME280;61365;52.162;4.500;2022-10-31T04:28:38;102002.88;;;10.66;96.15
72685;BME280;61365;52.162;4.500;2022-10-31T04:31:05;102001.97;;;10.64;96.33
72685;BME280;61365;52.162;4.500;2022-10-31T04:33:31;101996.72;;;10.64;96.56
72685;BME280;61365;52.162;4.500;2022-10-31T04:35:57;102001.97;;;10.64;96.46
72685;BME280;61365;52.162;4.500;2022-10-31T04:38:24;101997.69;;;10.70;96.43
72685;BME280;61365;52.162;4.500;2022-10-31T04:40:50;101995.91;;;10.69;96.37
72685;BME280;61365;52.162;4.500;2022-10-31T04:43:16;101988.78;;;10.61;96.06
72685;BME280;61365;52.162;4.500;2022-10-31T04:45:43;101991.38;;;10.58;96.18
72685;BME280;61365;52.162;4.500;2022-10-31T04:48:09;101982.66;;;10.62;96.44
72685;BME280;61365;52.162;4.500;2022-10-31T04:50:35;101979.97;;;10.56;95.25
72685;BME280;61365;52.162;4.500;2022-10-31T04:53:02;101980.59;;;10.43;96.41
72685;BME280;61365;52.162;4.500;2022-10-31T04:55:28;101980.41;;;10.33;96.37
72685;BME280;61365;52.162;4.500;2022-10-31T04:57:54;101982.13;;;10.31;96.71
72685;BME280;61365;52.162;4.500;2022-10-31T05:00:22;101979.50;;;10.33;96.84
72685;BME280;61365;52.162;4.500;2022-10-31T05:02:50;101985.53;;;10.29;96.87
72685;BME280;61365;52.162;4.500;2022-10-31T05:05:20;101984.63;;;10.25;97.29
72685;BME280;61365;52.162;4.500;2022-10-31T05:07:50;101981.94;;;10.22;96.70
72685;BME280;61365;52.162;4.500;2022-10-31T05:10:19;101974.72;;;10.12;96.97
72685;BME280;61365;52.162;4.500;2022-10-31T05:12:55;101975.69;;;10.15;96.94
72685;BME280;61365;52.162;4.500;2022-10-31T05:15:25;101982.78;;;10.19;96.71
72685;BME280;61365;52.162;4.500;2022-10-31T05:17:53;101969.53;;;10.15;97.04
72685;BME280;61365;52.162;4.500;2022-10-31T05:20:22;101968.56;;;10.08;97.11
72685;BME280;61365;52.162;4.500;2022-10-31T05:22:52;101972.94;;;10.09;97.56
72685;BME280;61365;52.162;4.500;2022-10-31T05:25:22;101969.44;;;10.09;97.78
72685;BME280;61365;52.162;4.500;2022-10-31T05:27:52;101977.13;;;9.99;98.38
72685;BME280;61365;52.162;4.500;2022-10-31T05:30:25;101962.13;;;9.92;97.93
72685;BME280;61365;52.162;4.500;2022-10-31T05:32:54;101965.81;;;10.02;97.75
72685;BME280;61365;52.162;4.500;2022-10-31T05:35:23;101953.38;;;9.91;97.48
72685;BME280;61365;52.162;4.500;2022-10-31T05:37:54;101954.19;;;9.87;97.16
72685;BME280;61365;52.162;4.500;2022-10-31T05:40:21;101954.75;;;9.74;97.35
72685;BME280;61365;52.162;4.500;2022-10-31T05:42:50;101959.91;;;9.69;97.97
72685;BME280;61365;52.162;4.500;2022-10-31T05:45:19;101948.00;;;9.41;98.73
72685;BME280;61365;52.162;4.500;2022-10-31T05:47:57;101951.84;;;9.60;98.49
72685;BME280;61365;52.162;4.500;2022-10-31T05:50:26;101952.81;;;9.64;98.29
72685;BME280;61365;52.162;4.500;2022-10-31T05:53:03;101945.91;;;9.67;97.65
72685;BME280;61365;52.162;4.500;2022-10-31T05:55:31;101946.75;;;9.66;97.97
72685;BME280;61365;52.162;4.500;2022-10-31T05:57:58;101948.91;;;9.43;99.32
72685;BME280;61365;52.162;4.500;2022-10-31T06:00:25;101944.53;;;9.43;100.00
72685;BME280;61365;52.162;4.500;2022-10-31T06:03:03;101942.22;;;9.59;100.00
72685;BME280;61365;52.162;4.500;2022-10-31T06:05:32;101949.91;;;9.50;100.00
72685;BME280;61365;52.162;4.500;2022-10-31T06:07:59;101943.69;;;9.46;100.00
72685;BME280;61365;52.162;4.500;2022-10-31T06:10:25;101941.97;;;9.45;100.00
72685;BME280;61365;52.162;4.500;2022-10-31T06:12:52;101949.78;;;9.43;100.00
72685;BME280;61365;52.162;4.500;2022-10-31T06:15:19;101945.44;;;9.44;100.00
72685;BME280;61365;52.162;4.500;2022-10-31T06:17:45;101942.84;;;9.45;100.00
72685;BME280;61365;52.162;4.500;2022-10-31T06:20:12;101947.16;;;9.43;100.00
72685;BME280;61365;52.162;4.500;2022-10-31T06:22:38;101949.00;;;9.49;100.00
72685;BME280;61365;52.162;4.500;2022-10-31T06:25:04;101943.88;;;9.54;100.00
72685;BME280;61365;52.162;4.500;2022-10-31T06:27:31;101942.97;;;9.52;100.00
72685;BME280;61365;52.162;4.500;2022-10-31T06:29:57;101949.22;;;9.58;100.00
72685;BME280;61365;52.162;4.500;2022-10-31T06:32:23;101945.69;;;9.56;100.00
72685;BME280;61365;52.162;4.500;2022-10-31T06:34:50;101944.91;;;9.60;100.00
72685;BME280;61365;52.162;4.500;2022-10-31T06:37:16;101951.16;;;9.67;100.00
72685;BME280;61365;52.162;4.500;2022-10-31T06:39:42;101946.09;;;9.76;100.00
72685;BME280;61365;52.162;4.500;2022-10-31T06:42:09;101947.00;;;9.79;100.00
72685;BME280;61365;52.162;4.500;2022-10-31T06:44:35;101946.25;;;9.86;100.00
72685;BME280;61365;52.162;4.500;2022-10-31T06:47:01;101946.44;;;9.94;100.00
72685;BME280;61365;52.162;4.500;2022-10-31T06:49:28;101946.56;;;10.01;100.00
72685;BME280;61365;52.162;4.500;2022-10-31T06:51:54;101942.31;;;10.06;100.00
72685;BME280;61365;52.162;4.500;2022-10-31T06:54:20;101940.56;;;10.07;100.00
72685;BME280;61365;52.162;4.500;2022-10-31T06:56:47;101941.50;;;10.11;100.00
72685;BME280;61365;52.162;4.500;2022-10-31T06:59:15;101951.19;;;10.15;100.00
72685;BME280;61365;52.162;4.500;2022-10-31T07:01:41;101956.56;;;10.21;100.00
72685;BME280;61365;52.162;4.500;2022-10-31T07:04:10;101956.56;;;10.22;100.00
72685;BME280;61365;52.162;4.500;2022-10-31T07:06:37;101954.91;;;10.28;100.00
72685;BME280;61365;52.162;4.500;2022-10-31T07:09:04;101967.13;;;10.26;100.00
72685;BME280;61365;52.162;4.500;2022-10-31T07:11:31;101967.25;;;10.32;100.00
72685;BME280;61365;52.162;4.500;2022-10-31T07:13:57;101969.06;;;10.36;100.00
72685;BME280;61365;52.162;4.500;2022-10-31T07:16:24;101971.81;;;10.41;100.00
72685;BME280;61365;52.162;4.500;2022-10-31T07:18:50;101968.56;;;10.54;100.00
72685;BME280;61365;52.162;4.500;2022-10-31T07:21:16;101970.41;;;10.61;100.00
72685;BME280;61365;52.162;4.500;2022-10-31T07:23:43;101970.47;;;10.64;100.00
72685;BME280;61365;52.162;4.500;2022-10-31T07:26:09;101976.69;;;10.70;99.77
72685;BME280;61365;52.162;4.500;2022-10-31T07:28:36;101978.38;;;10.66;99.45
72685;BME280;61365;52.162;4.500;2022-10-31T07:31:02;101978.63;;;10.81;98.70
72685;BME280;61365;52.162;4.500;2022-10-31T07:33:28;101981.25;;;10.81;98.93
72685;BME280;61365;52.162;4.500;2022-10-31T07:35:55;101973.44;;;10.86;98.04
72685;BME280;61365;52.162;4.500;2022-10-31T07:38:21;101975.19;;;10.84;97.63
72685;BME280;61365;52.162;4.500;2022-10-31T07:40:51;101977.69;;;10.78;97.44
72685;BME280;61365;52.162;4.500;2022-10-31T07:43:19;101976.84;;;10.79;97.31
72685;BME280;61365;52.162;4.500;2022-10-31T07:45:52;101981.13;;;10.75;97.71
72685;BME280;61365;52.162;4.500;2022-10-31T07:48:19;101976.84;;;10.80;97.79
72685;BME280;61365;52.162;4.500;2022-10-31T07:50:45;101974.91;;;10.69;98.17
72685;BME280;61365;52.162;4.500;2022-10-31T07:53:13;101973.19;;;10.69;98.26
72685;BME280;61365;52.162;4.500;2022-10-31T07:55:41;101972.34;;;10.73;98.02
72685;BME280;61365;52.162;4.500;2022-10-31T07:58:10;101974.06;;;10.70;97.55
72685;BME280;61365;52.162;4.500;2022-10-31T08:00:43;101977.72;;;10.79;97.21
72685;BME280;61365;52.162;4.500;2022-10-31T08:03:15;101968.84;;;10.73;97.66
72685;BME280;61365;52.162;4.500;2022-10-31T08:05:44;101966.66;;;11.01;97.53
72685;BME280;61365;52.162;4.500;2022-10-31T08:08:12;101966.94;;;11.19;96.13
72685;BME280;61365;52.162;4.500;2022-10-31T08:10:39;101959.97;;;11.20;94.87
72685;BME280;61365;52.162;4.500;2022-10-31T08:13:08;101964.91;;;11.01;96.63
72685;BME280;61365;52.162;4.500;2022-10-31T08:15:36;101964.41;;;11.25;95.57
72685;BME280;61365;52.162;4.500;2022-10-31T08:18:06;101967.00;;;11.24;95.78
72685;BME280;61365;52.162;4.500;2022-10-31T08:20:37;101967.19;;;11.35;95.65
72685;BME280;61365;52.162;4.500;2022-10-31T08:23:04;101976.94;;;11.45;94.18
72685;BME280;61365;52.162;4.500;2022-10-31T08:25:33;101978.06;;;11.64;94.10
72685;BME280;61365;52.162;4.500;2022-10-31T08:28:01;101970.28;;;11.74;93.04
72685;BME280;61365;52.162;4.500;2022-10-31T08:30:29;101966.66;;;11.64;93.96
72685;BME280;61365;52.162;4.500;2022-10-31T08:33:04;101966.69;;;11.67;93.65
72685;BME280;61365;52.162;4.500;2022-10-31T08:35:31;101963.25;;;11.71;93.47
72685;BME280;61365;52.162;4.500;2022-10-31T08:37:59;101964.59;;;11.41;94.78
72685;BME280;61365;52.162;4.500;2022-10-31T08:40:27;101969.09;;;11.47;94.72
72685;BME280;61365;52.162;4.500;2022-10-31T08:43:12;101968.94;;;11.37;95.79
72685;BME280;61365;52.162;4.500;2022-10-31T08:45:40;101968.94;;;11.37;94.72
72685;BME280;61365;52.162;4.500;2022-10-31T08:48:10;101969.09;;;11.48;95.06
72685;BME280;61365;52.162;4.500;2022-10-31T08:50:39;101965.22;;;11.23;96.16
72685;BME280;61365;52.162;4.500;2022-10-31T08:53:12;101969.63;;;11.22;97.29
72685;BME280;61365;52.162;4.500;2022-10-31T08:55:41;101957.53;;;11.34;97.57
72685;BME280;61365;52.162;4.500;2022-10-31T08:58:14;101953.31;;;11.47;96.38
72685;BME280;61365;52.162;4.500;2022-10-31T09:00:42;101949.31;;;11.80;95.79
72685;BME280;61365;52.162;4.500;2022-10-31T09:03:12;101954.88;;;12.03;93.80
72685;BME280;61365;52.162;4.500;2022-10-31T09:05:41;101951.00;;;11.73;94.66
72685;BME280;61365;52.162;4.500;2022-10-31T09:08:08;101948.16;;;11.54;95.81
72685;BME280;61365;52.162;4.500;2022-10-31T09:10:36;101948.19;;;11.57;96.33
72685;BME280;61365;52.162;4.500;2022-10-31T09:13:09;101941.97;;;11.51;97.02
72685;BME280;61365;52.162;4.500;2022-10-31T09:15:39;101944.78;;;11.66;96.31
72685;BME280;61365;52.162;4.500;2022-10-31T09:18:08;101941.25;;;11.66;96.51
72685;BME280;61365;52.162;4.500;2022-10-31T09:20:36;101938.72;;;11.70;96.53
72685;BME280;61365;52.162;4.500;2022-10-31T09:23:12;101937.19;;;11.91;95.47
72685;BME280;61365;52.162;4.500;2022-10-31T09:25:43;101923.28;;;12.00;94.15
72685;BME280;61365;52.162;4.500;2022-10-31T09:28:14;101928.66;;;12.12;94.44
72685;BME280;61365;52.162;4.500;2022-10-31T09:30:42;101918.34;;;12.34;93.31
72685;BME280;61365;52.162;4.500;2022-10-31T09:33:12;101920.31;;;12.58;92.01
72685;BME280;61365;52.162;4.500;2022-10-31T09:35:40;101919.63;;;12.89;91.49
72685;BME280;61365;52.162;4.500;2022-10-31T09:38:12;101912.78;;;13.14;89.60
72685;BME280;61365;52.162;4.500;2022-10-31T09:40:43;101898.75;;;13.20;88.53
72685;BME280;61365;52.162;4.500;2022-10-31T09:43:43;101902.34;;;13.36;88.73
72685;BME280;61365;52.162;4.500;2022-10-31T09:49:37;101898.00;;;13.41;88.45
72685;BME280;61365;52.162;4.500;2022-10-31T09:52:36;101896.13;;;13.23;88.59
72685;BME280;61365;52.162;4.500;2022-10-31T09:55:42;101889.09;;;13.17;89.06
72685;BME280;61365;52.162;4.500;2022-10-31T09:58:16;101884.59;;;13.02;90.23
72685;BME280;61365;52.162;4.500;2022-10-31T10:00:51;101879.22;;;12.85;91.09
72685;BME280;61365;52.162;4.500;2022-10-31T10:03:35;101880.13;;;12.87;90.91
72685;BME280;61365;52.162;4.500;2022-10-31T10:06:23;101873.22;;;13.08;90.70
72685;BME280;61365;52.162;4.500;2022-10-31T10:08:53;101876.69;;;13.02;90.40
72685;BME280;61365;52.162;4.500;2022-10-31T10:23:29;101869.91;;;13.46;90.07
72685;BME280;61365;52.162;4.500;2022-10-31T10:26:23;101865.53;;;13.53;89.84
72685;BME280;61365;52.162;4.500;2022-10-31T10:29:03;101859.44;;;13.71;89.47
72685;BME280;61365;52.162;4.500;2022-10-31T10:31:48;101848.88;;;13.73;89.71
72685;BME280;61365;52.162;4.500;2022-10-31T10:34:22;101835.69;;;13.87;88.70
72685;BME280;61365;52.162;4.500;2022-10-31T10:37:01;101834.81;;;13.88;88.75
72685;BME280;61365;52.162;4.500;2022-10-31T10:39:38;101827.78;;;13.87;88.79
72685;BME280;61365;52.162;4.500;2022-10-31T10:42:14;101823.41;;;13.92;88.47
72685;BME280;61365;52.162;4.500;2022-10-31T10:45:13;101816.38;;;13.94;88.82
72685;BME280;61365;52.162;4.500;2022-10-31T10:48:40;101811.97;;;14.10;87.47
72685;BME280;61365;52.162;4.500;2022-10-31T10:51:21;101801.41;;;13.96;88.32
72685;BME280;61365;52.162;4.500;2022-10-31T10:54:03;101801.41;;;14.10;87.60
72685;BME280;61365;52.162;4.500;2022-10-31T10:57:00;101803.16;;;14.03;88.04
72685;BME280;61365;52.162;4.500;2022-10-31T10:59:48;101795.25;;;14.03;88.09
72685;BME280;61365;52.162;4.500;2022-10-31T11:02:22;101798.78;;;14.01;88.47
72685;BME280;61365;52.162;4.500;2022-10-31T11:04:53;101804.94;;;14.03;88.32
72685;BME280;61365;52.162;4.500;2022-10-31T11:07:22;101802.25;;;13.69;90.62
72685;BME280;61365;52.162;4.500;2022-10-31T11:09:48;101804.03;;;13.68;90.51
72685;BME280;61365;52.162;4.500;2022-10-31T11:12:24;101796.13;;;13.94;89.28
72685;BME280;61365;52.162;4.500;2022-10-31T11:15:06;101795.25;;;13.99;88.85
72685;BME280;61365;52.162;4.500;2022-10-31T11:17:42;101797.03;;;13.98;88.73
72685;BME280;61365;52.162;4.500;2022-10-31T11:20:23;101797.00;;;14.24;86.89
72685;BME280;61365;52.162;4.500;2022-10-31T11:26:05;101789.94;;;14.37;86.97
72685;BME280;61365;52.162;4.500;2022-10-31T11:28:56;101783.78;;;14.32;87.62
72685;BME280;61365;52.162;4.500;2022-10-31T11:31:24;101777.59;;;14.53;86.78
72685;BME280;61365;52.162;4.500;2022-10-31T11:34:03;101770.56;;;14.49;87.10
72685;BME280;61365;52.162;4.500;2022-10-31T11:36:35;101757.31;;;14.62;87.02
72685;BME280;61365;52.162;4.500;2022-10-31T11:39:23;101753.78;;;14.69;86.30
72685;BME280;61365;52.162;4.500;2022-10-31T11:41:52;101752.03;;;14.54;87.24
72685;BME280;61365;52.162;4.500;2022-10-31T11:44:26;101747.63;;;14.70;86.71
72685;BME280;61365;52.162;4.500;2022-10-31T11:46:57;101752.72;;;15.13;84.25
72685;BME280;61365;52.162;4.500;2022-10-31T11:51:59;101738.72;;;14.90;84.99
72685;BME280;61365;52.162;4.500;2022-10-31T11:54:34;101749.38;;;14.63;86.59
72685;BME280;61365;52.162;4.500;2022-10-31T12:00:00;101723.84;;;14.59;87.91
72685;BME280;61365;52.162;4.500;2022-10-31T12:02:31;101715.81;;;14.95;85.46
72685;BME280;61365;52.162;4.500;2022-10-31T12:05:11;101711.47;;;14.84;86.10
72685;BME280;61365;52.162;4.500;2022-10-31T12:07:48;101707.06;;;14.86;86.55
72685;BME280;61365;52.162;4.500;2022-10-31T12:10:16;101697.44;;;14.68;87.13
72685;BME280;61365;52.162;4.500;2022-10-31T12:15:36;101697.38;;;14.82;86.45
72685;BME280;61365;52.162;4.500;2022-10-31T12:18:28;101695.59;;;14.83;85.37
72685;BME280;61365;52.162;4.500;2022-10-31T12:35:29;101632.25;;;14.67;87.55
72685;BME280;61365;52.162;4.500;2022-10-31T12:47:53;101609.28;;;14.88;86.80
72685;BME280;61365;52.162;4.500;2022-10-31T12:50:31;101610.88;;;15.12;86.00
72685;BME280;61365;52.162;4.500;2022-10-31T13:02:16;101571.03;;;15.32;85.10
72685;BME280;61365;52.162;4.500;2022-10-31T13:05:00;101564.06;;;15.24;86.14
72685;BME280;61365;52.162;4.500;2022-10-31T13:12:39;101556.03;;;15.36;84.78
72685;BME280;61365;52.162;4.500;2022-10-31T13:15:20;101550.00;;;15.19;85.86
72685;BME280;61365;52.162;4.500;2022-10-31T13:17:53;101531.44;;;15.25;85.60
72685;BME280;61365;52.162;4.500;2022-10-31T13:20:31;101532.28;;;15.28;85.78
72685;BME280;61365;52.162;4.500;2022-10-31T13:23:10;101525.97;;;15.45;85.27
72685;BME280;61365;52.162;4.500;2022-10-31T13:26:06;101525.94;;;15.48;85.66
72685;BME280;61365;52.162;4.500;2022-10-31T13:31:20;101514.38;;;15.57;85.04
72685;BME280;61365;52.162;4.500;2022-10-31T13:33:59;101512.75;;;15.45;85.64
72685;BME280;61365;52.162;4.500;2022-10-31T13:36:39;101511.81;;;15.48;85.44
72685;BME280;61365;52.162;4.500;2022-10-31T13:39:51;101513.50;;;15.55;85.01
72685;BME280;61365;52.162;4.500;2022-10-31T13:45:23;101498.50;;;15.55;85.25
72685;BME280;61365;52.162;4.500;2022-10-31T13:48:19;101496.75;;;15.56;84.93
72685;BME280;61365;52.162;4.500;2022-10-31T13:50:57;101490.44;;;15.66;84.56
72685;BME280;61365;52.162;4.500;2022-10-31T13:53:44;101494.16;;;15.50;85.65
72685;BME280;61365;52.162;4.500;2022-10-31T13:56:29;101481.75;;;15.58;85.50
72685;BME280;61365;52.162;4.500;2022-10-31T14:01:36;101470.81;;;15.06;88.12
72685;BME280;61365;52.162;4.500;2022-10-31T14:07:13;101460.84;;;15.33;87.34
72685;BME280;61365;52.162;4.500;2022-10-31T14:10:04;101462.59;;;15.32;87.35
72685;BME280;61365;52.162;4.500;2022-10-31T14:12:46;101459.28;;;15.13;87.92
72685;BME280;61365;52.162;4.500;2022-10-31T14:15:19;101446.53;;;15.53;86.43
72685;BME280;61365;52.162;4.500;2022-10-31T14:17:48;101436.97;;;15.39;86.54
72685;BME280;61365;52.162;4.500;2022-10-31T14:22:44;101420.09;;;15.50;86.16
72685;BME280;61365;52.162;4.500;2022-10-31T14:25:43;101409.97;;;15.12;88.13
72685;BME280;61365;52.162;4.500;2022-10-31T14:28:32;101408.97;;;15.24;87.99
72685;BME280;61365;52.162;4.500;2022-10-31T14:31:00;101412.19;;;15.46;86.23
72685;BME280;61365;52.162;4.500;2022-10-31T14:33:29;101403.56;;;15.32;87.58
72685;BME280;61365;52.162;4.500;2022-10-31T14:36:03;101397.28;;;15.41;87.18
72685;BME280;61365;52.162;4.500;2022-10-31T14:39:00;101390.03;;;15.57;86.12
72685;BME280;61365;52.162;4.500;2022-10-31T14:42:07;101383.81;;;15.61;85.94
72685;BME280;61365;52.162;4.500;2022-10-31T14:50:54;101370.09;;;15.29;87.39
72685;BME280;61365;52.162;4.500;2022-10-31T14:53:27;101373.56;;;15.35;87.37
72685;BME280;61365;52.162;4.500;2022-10-31T14:55:57;101365.66;;;15.33;87.28
72685;BME280;61365;52.162;4.500;2022-10-31T14:58:39;101354.22;;;15.29;87.85
72685;BME280;61365;52.162;4.500;2022-10-31T15:01:25;101351.41;;;15.45;86.68
72685;BME280;61365;52.162;4.500;2022-10-31T15:04:11;101336.13;;;14.98;89.36
72685;BME280;61365;52.162;4.500;2022-10-31T15:06:48;101332.84;;;15.46;86.68
72685;BME280;61365;52.162;4.500;2022-10-31T15:09:31;101334.28;;;15.05;89.09
72685;BME280;61365;52.162;4.500;2022-10-31T15:12:00;101324.56;;;15.07;89.43